Time;durP1;ratioP1;P1;durP2;ratioP2;P2;SDS_P1;SDS_P2;PMS_P1;PMS_P2;Temp;Humidity;BMP_temperature;BMP_pressure;BME280_temperature;BME280_humidity;BME280_pressure;Samples;Min_cycle;Max_cycle;Signal;HPM_P1;HPM_P2
2022/06/11 00:01:13;;;;;;;5.28;3.30;;;12.70;99.90;;;;;;5087220;28;20059;-66
2022/06/11 00:03:41;;;;;;;5.35;3.40;;;12.80;99.90;;;;;;5094439;28;20055;-66
2022/06/11 00:06:08;;;;;;;8.18;3.85;;;12.70;99.90;;;;;;5094040;28;20404;-66
2022/06/11 00:08:35;;;;;;;9.07;4.00;;;12.70;99.90;;;;;;5086025;28;20040;-66
2022/06/11 00:11:02;;;;;;;6.63;3.63;;;12.70;99.90;;;;;;5094056;28;20048;-67
2022/06/11 00:13:29;;;;;;;5.53;3.35;;;12.60;99.90;;;;;;5092928;28;20040;-66
2022/06/11 00:15:56;;;;;;;4.50;3.20;;;12.60;99.90;;;;;;5085009;28;20543;-67
2022/06/11 00:18:24;;;;;;;8.88;4.43;;;12.60;99.90;;;;;;5085275;28;20496;-67
2022/06/11 00:20:51;;;;;;;6.78;3.92;;;12.60;99.90;;;;;;5075992;28;20497;-67
2022/06/11 00:23:19;;;;;;;7.65;3.65;;;12.60;99.90;;;;;;5094174;28;20044;-67
2022/06/11 00:25:46;;;;;;;6.53;3.47;;;12.50;99.90;;;;;;5091007;28;20055;-67
2022/06/11 00:28:13;;;;;;;;;;;12.50;99.90;;;;;;5088495;28;20400;-66
2022/06/11 00:30:40;;;;;;;7.63;3.70;;;12.50;99.90;;;;;;5093783;28;19920;-66
2022/06/11 00:33:06;;;;;;;7.13;3.78;;;12.40;99.90;;;;;;5087884;28;20056;-66
2022/06/11 00:35:35;;;;;;;;;;;12.50;99.90;;;;;;5090827;28;20057;-67
2022/06/11 00:38:03;;;;;;;4.50;3.37;;;12.50;99.90;;;;;;5094649;28;20037;-66
2022/06/11 00:40:32;;;;;;;6.72;4.05;;;12.40;99.90;;;;;;5092722;28;20051;-67
2022/06/11 00:42:58;;;;;;;7.38;3.70;;;12.40;99.90;;;;;;5082007;28;20094;-66
2022/06/11 00:45:58;;;;;;;7.53;3.75;;;12.40;99.90;;;;;;5089156;28;20048;-66
2022/06/11 00:48:34;;;;;;;5.07;3.47;;;12.40;99.90;;;;;;5093743;28;20048;-66
2022/06/11 00:51:09;;;;;;;5.80;3.58;;;12.30;99.90;;;;;;5092376;28;20382;-66
2022/06/11 00:53:39;;;;;;;6.00;3.33;;;12.30;99.90;;;;;;5084657;28;20055;-66
2022/06/11 00:56:13;;;;;;;4.47;3.20;;;12.20;99.90;;;;;;5093699;28;20382;-66
2022/06/11 00:58:45;;;;;;;8.63;3.58;;;12.20;99.90;;;;;;5093788;28;20044;-66
2022/06/11 01:01:15;;;;;;;6.43;3.63;;;12.20;99.90;;;;;;5086449;28;20046;-66
2022/06/11 01:03:44;;;;;;;5.20;3.88;;;12.20;99.90;;;;;;5091072;28;20047;-66
2022/06/11 01:06:45;;;;;;;7.53;3.90;;;12.20;99.90;;;;;;5093571;28;20052;-66
2022/06/11 01:09:46;;;;;;;5.93;3.53;;;12.10;99.90;;;;;;5092407;28;20527;-66
2022/06/11 01:12:42;;;;;;;8.68;3.85;;;12.00;99.90;;;;;;5081000;28;20052;-66
2022/06/11 01:15:23;;;;;;;5.22;3.65;;;12.00;99.90;;;;;;5085031;22;20048;-69
2022/06/11 01:18:16;;;;;;;7.95;3.92;;;12.00;99.90;;;;;;5071292;28;20493;-70
2022/06/11 01:21:20;;;;;;;6.32;3.85;;;12.00;99.90;;;;;;5026020;28;20065;-71
2022/06/11 01:24:20;;;;;;;5.68;3.22;;;11.90;99.90;;;;;;5003981;28;20045;-70
2022/06/11 01:26:54;;;;;;;5.63;3.53;;;11.90;99.90;;;;;;5053183;28;20091;-70
2022/06/11 01:29:46;;;;;;;5.90;3.38;;;11.90;99.90;;;;;;5065557;28;20060;-70
2022/06/11 01:32:55;;;;;;;4.85;3.67;;;11.80;99.90;;;;;;5052272;28;20087;-70
2022/06/11 01:35:52;;;;;;;5.82;3.50;;;11.80;99.90;;;;;;5053943;28;20037;-70
2022/06/11 01:38:35;;;;;;;6.78;3.78;;;11.80;99.90;;;;;;5061156;28;20443;-71
2022/06/11 01:41:31;;;;;;;5.82;3.92;;;11.70;99.90;;;;;;5052397;28;20043;-71
2022/06/11 01:44:26;;;;;;;4.82;3.58;;;11.70;99.90;;;;;;5054480;28;20067;-70
2022/06/11 01:46:55;;;;;;;10.27;3.55;;;11.70;99.90;;;;;;5055050;28;20060;-70
2022/06/11 01:49:22;;;;;;;6.45;4.07;;;11.70;99.90;;;;;;5052633;28;20052;-70
2022/06/11 01:52:05;;;;;;;6.95;4.05;;;11.70;99.90;;;;;;5052305;28;20045;-70
2022/06/11 01:54:44;;;;;;;7.07;3.78;;;11.70;99.90;;;;;;5067216;28;20040;-70
2022/06/11 01:57:26;;;;;;;9.35;4.25;;;11.60;99.90;;;;;;5066203;28;20037;-71
2022/06/11 02:00:19;;;;;;;6.00;3.85;;;11.60;99.90;;;;;;5072257;28;20036;-70
2022/06/11 02:03:19;;;;;;;6.93;4.32;;;11.60;99.90;;;;;;5037076;28;20041;-70
2022/06/11 02:06:25;;;;;;;13.95;4.28;;;11.50;99.90;;;;;;5055858;28;20494;-70
2022/06/11 02:08:56;;;;;;;6.82;3.35;;;11.60;99.90;;;;;;5072089;28;20047;-70
2022/06/11 02:11:44;;;;;;;7.72;4.15;;;11.60;99.90;;;;;;5071924;28;20049;-70
2022/06/11 02:14:32;;;;;;;7.00;3.65;;;11.50;99.90;;;;;;5060105;28;20497;-70
2022/06/11 02:17:31;;;;;;;6.22;3.70;;;11.50;99.90;;;;;;5052286;28;20041;-71
2022/06/11 02:20:02;;;;;;;6.20;3.72;;;11.60;99.90;;;;;;5051802;28;20056;-71
2022/06/11 02:22:41;;;;;;;8.23;3.30;;;11.60;99.90;;;;;;5064332;28;20070;-70
2022/06/11 02:25:11;;;;;;;8.20;3.70;;;11.50;99.90;;;;;;5065215;28;20044;-70
2022/06/11 02:27:40;;;;;;;7.43;3.45;;;11.60;99.90;;;;;;5072051;28;20032;-70
2022/06/11 02:30:10;;;;;;;3.83;2.95;;;11.50;99.90;;;;;;5071088;28;20071;-70
2022/06/11 02:32:37;;;;;;;6.25;3.30;;;11.50;99.90;;;;;;5063176;28;20464;-70
2022/06/11 02:35:11;;;;;;;6.30;3.53;;;11.50;99.90;;;;;;5071813;28;20044;-70
2022/06/11 02:37:44;;;;;;;7.47;3.92;;;11.40;99.90;;;;;;5071856;28;20098;-70
2022/06/11 02:40:19;;;;;;;4.78;3.65;;;11.40;99.90;;;;;;5060097;28;20091;-71
2022/06/11 02:42:48;;;;;;;8.60;4.05;;;11.40;99.90;;;;;;5070274;28;20052;-70
2022/06/11 02:45:15;;;;;;;6.90;4.15;;;11.40;99.90;;;;;;5071298;28;20040;-71
2022/06/11 02:47:44;;;;;;;5.70;4.03;;;11.40;99.90;;;;;;5071352;28;20044;-70
2022/06/11 02:50:25;;;;;;;8.55;3.55;;;11.40;99.90;;;;;;5064709;28;20044;-70
2022/06/11 02:52:54;;;;;;;6.75;3.97;;;11.30;99.90;;;;;;5062306;28;20051;-70
2022/06/11 02:55:22;;;;;;;9.50;4.30;;;11.30;99.90;;;;;;5071537;28;20530;-70
2022/06/11 02:57:49;;;;;;;7.90;3.83;;;11.30;99.90;;;;;;5071470;28;20098;-71
2022/06/11 03:00:20;;;;;;;9.27;4.63;;;11.30;99.90;;;;;;5066434;28;20029;-70
2022/06/11 03:02:48;;;;;;;10.88;4.00;;;11.40;99.90;;;;;;5061784;28;20057;-70
2022/06/11 03:05:22;;;;;;;8.73;3.90;;;11.40;99.90;;;;;;5053416;28;20048;-70
2022/06/11 03:07:50;;;;;;;11.23;4.68;;;11.50;99.90;;;;;;5070916;28;20554;-70
2022/06/11 03:10:18;;;;;;;;;;;11.40;99.90;;;;;;5062838;28;20089;-70
2022/06/11 03:12:44;;;;;;;5.95;3.95;;;11.50;99.90;;;;;;5071394;28;20438;-70
2022/06/11 03:15:13;;;;;;;8.07;4.25;;;11.50;99.90;;;;;;5069434;28;20044;-70
2022/06/11 03:17:41;;;;;;;5.47;3.20;;;11.40;99.90;;;;;;5069457;28;20567;-70
2022/06/11 03:20:10;;;;;;;9.10;3.55;;;11.40;99.90;;;;;;5063499;28;20408;-70
2022/06/11 03:22:37;;;;;;;5.38;3.95;;;11.30;99.90;;;;;;5062673;28;20577;-70
2022/06/11 03:25:04;;;;;;;5.22;3.85;;;11.30;99.90;;;;;;5071285;28;20239;-70
2022/06/11 03:27:31;;;;;;;6.00;3.90;;;11.30;99.90;;;;;;5070808;28;20547;-70
2022/06/11 03:29:58;;;;;;;8.80;3.90;;;11.30;99.90;;;;;;5059044;28;20082;-70
2022/06/11 03:32:25;;;;;;;5.65;3.88;;;11.40;99.90;;;;;;5050952;28;20045;-70
2022/06/11 03:34:52;;;;;;;5.93;3.75;;;11.40;99.90;;;;;;5051023;28;20445;-70
2022/06/11 03:37:19;;;;;;;6.85;3.58;;;11.40;99.90;;;;;;5050765;28;20045;-70
2022/06/11 03:39:45;;;;;;;6.30;4.13;;;11.40;99.90;;;;;;5059185;28;20041;-70
2022/06/11 03:42:13;;;;;;;6.65;4.10;;;11.50;99.90;;;;;;5050803;28;20551;-70
2022/06/11 03:44:40;;;;;;;9.05;4.07;;;11.40;99.90;;;;;;5057331;28;20374;-70
2022/06/11 03:47:07;;;;;;;6.95;4.18;;;11.40;99.90;;;;;;5062715;28;20045;-70
2022/06/11 03:49:34;;;;;;;6.55;4.43;;;11.40;99.90;;;;;;5071275;28;20553;-70
2022/06/11 03:52:02;;;;;;;7.55;4.53;;;11.30;99.90;;;;;;5070622;28;20043;-70
2022/06/11 03:54:29;;;;;;;9.10;5.03;;;11.40;99.90;;;;;;5062415;28;20037;-69
2022/06/11 03:56:55;;;;;;;7.78;5.00;;;11.50;99.90;;;;;;5070735;28;20040;-70
2022/06/11 03:59:22;;;;;;;8.88;4.78;;;11.50;99.90;;;;;;5070827;28;20102;-70
2022/06/11 04:01:50;;;;;;;12.25;4.75;;;11.50;99.90;;;;;;5063688;28;20551;-70
2022/06/11 04:04:18;;;;;;;;;;;11.50;99.90;;;;;;5065553;28;20052;-70
2022/06/11 04:06:52;;;;;;;8.23;5.20;;;11.50;99.90;;;;;;5070809;28;19977;-70
2022/06/11 04:09:24;;;;;;;7.47;5.25;;;11.50;99.90;;;;;;5070996;28;20111;-70
2022/06/11 04:11:51;;;;;;;10.18;4.63;;;11.50;99.90;;;;;;5067166;28;20565;-69
2022/06/11 04:14:18;;;;;;;;;;;11.60;99.90;;;;;;5065570;28;20090;-70
2022/06/11 04:16:52;;;;;;;6.65;4.68;;;11.60;99.90;;;;;;5070753;28;19974;-70
2022/06/11 04:19:26;;;;;;;7.68;4.93;;;11.60;99.90;;;;;;5070218;28;20484;-69
2022/06/11 04:21:55;;;;;;;8.45;5.22;;;11.60;99.90;;;;;;5059051;28;20102;-70
2022/06/11 04:24:23;;;;;;;6.43;4.82;;;11.60;99.90;;;;;;5055388;28;20041;-70
2022/06/11 04:26:52;;;;;;;6.30;5.10;;;11.70;99.90;;;;;;5050479;28;20049;-70
2022/06/11 04:29:22;;;;;;;9.10;4.95;;;11.70;99.90;;;;;;5053692;28;20037;-70
2022/06/11 04:31:51;;;;;;;12.60;5.10;;;11.70;99.90;;;;;;5061187;28;20048;-70
2022/06/11 04:34:20;;;;;;;6.82;4.53;;;11.70;99.90;;;;;;5065605;28;20032;-70
2022/06/11 04:36:48;;;;;;;7.05;4.57;;;11.80;99.90;;;;;;5074153;28;20052;-70
2022/06/11 04:39:18;;;;;;;6.45;4.70;;;11.80;99.90;;;;;;5073718;28;20390;-70
2022/06/11 04:41:45;;;;;;;7.40;4.22;;;11.90;99.90;;;;;;5065311;28;20440;-70
2022/06/11 04:44:13;;;;;;;11.55;5.00;;;11.90;99.90;;;;;;5074028;28;20048;-70
2022/06/11 04:46:40;;;;;;;7.35;4.72;;;12.00;99.90;;;;;;5073236;28;20509;-70
2022/06/11 04:49:08;;;;;;;9.75;6.55;;;12.00;99.90;;;;;;5068576;28;20120;-70
2022/06/11 04:51:34;;;;;;;9.85;5.97;;;12.10;99.90;;;;;;5070320;28;20049;-70
2022/06/11 04:54:01;;;;;;;8.02;4.55;;;12.10;99.90;;;;;;5073708;28;20627;-70
2022/06/11 04:56:29;;;;;;;8.77;4.82;;;12.20;99.90;;;;;;5073567;28;20447;-70
2022/06/11 04:58:58;;;;;;;7.82;5.30;;;12.30;99.90;;;;;;5070078;28;20033;-70
2022/06/11 05:01:30;;;;;;;8.68;4.53;;;12.20;99.90;;;;;;5069373;28;20044;-70
2022/06/11 05:03:56;;;;;;;;;;;12.30;99.90;;;;;;5074086;28;20079;-71
2022/06/11 05:06:28;;;;;;;10.48;5.13;;;12.40;99.90;;;;;;5073152;28;19920;-70
2022/06/11 05:08:55;;;;;;;8.07;5.43;;;12.40;99.90;;;;;;5058902;28;20548;-70
2022/06/11 05:11:22;;;;;;;10.15;4.85;;;12.40;99.90;;;;;;5073031;28;20106;-70
2022/06/11 05:13:49;;;;;;;8.25;5.55;;;12.50;99.90;;;;;;5073101;28;20040;-71
2022/06/11 05:16:18;;;;;;;9.60;5.22;;;12.50;99.90;;;;;;5072993;28;20090;-70
2022/06/11 05:18:45;;;;;;;9.18;5.15;;;12.60;99.90;;;;;;5064887;28;20037;-70
2022/06/11 05:21:13;;;;;;;7.13;5.30;;;12.70;99.90;;;;;;5072990;28;20045;-70
2022/06/11 05:23:39;;;;;;;7.60;5.47;;;12.70;99.90;;;;;;5072981;28;20090;-70
2022/06/11 05:26:16;;;;;;;8.05;5.53;;;12.80;99.90;;;;;;5072774;28;20036;-71
2022/06/11 05:28:43;;;;;;;10.40;5.65;;;12.90;99.90;;;;;;5064792;28;20055;-71
2022/06/11 05:31:10;;;;;;;;;;;13.00;99.90;;;;;;5073064;28;20102;-71
2022/06/11 05:33:37;;;;;;;8.90;5.00;;;13.30;99.90;;;;;;5071488;28;20335;-71
2022/06/11 05:36:05;;;;;;;7.93;5.13;;;13.30;99.90;;;;;;5065559;28;20041;-71
2022/06/11 05:38:33;;;;;;;10.00;4.82;;;13.30;99.90;;;;;;5072740;28;20049;-70
2022/06/11 05:41:00;;;;;;;10.40;4.93;;;13.20;99.90;;;;;;5071244;28;20040;-70
2022/06/11 05:43:27;;;;;;;10.65;5.25;;;13.30;99.90;;;;;;5061000;28;20037;-71
2022/06/11 05:46:07;;;;;;;9.60;5.35;;;13.30;99.90;;;;;;5072133;28;20040;-71
2022/06/11 05:48:41;;;;;;;8.32;5.15;;;13.40;99.90;;;;;;5072669;28;20055;-70
2022/06/11 05:51:12;;;;;;;6.20;4.80;;;13.40;99.90;;;;;;5071921;28;20044;-71
2022/06/11 05:53:47;;;;;;;7.67;5.03;;;13.50;99.90;;;;;;5054058;28;20044;-71
2022/06/11 05:56:14;;;;;;;8.35;4.60;;;13.50;99.90;;;;;;5066370;28;20044;-71
2022/06/11 05:58:48;;;;;;;9.75;5.55;;;13.50;99.90;;;;;;5072391;28;20052;-71
2022/06/11 06:01:17;;;;;;;8.43;4.55;;;13.50;99.90;;;;;;5065171;28;20037;-71
2022/06/11 06:03:44;;;;;;;7.85;4.60;;;13.60;99.90;;;;;;5060557;28;20500;-71
2022/06/11 06:06:10;;;;;;;13.63;7.15;;;13.70;99.90;;;;;;5066522;28;20043;-70
2022/06/11 06:08:37;;;;;;;13.15;5.57;;;13.80;99.90;;;;;;5072276;28;20599;-70
2022/06/11 06:11:04;;;;;;;15.73;5.13;;;13.90;99.90;;;;;;5066379;28;20090;-71
2022/06/11 06:13:50;;;;;;;12.30;5.18;;;13.90;99.90;;;;;;5060242;28;20041;-70
2022/06/11 06:16:19;;;;;;;9.40;4.97;;;13.90;99.90;;;;;;5059126;28;20095;-71
2022/06/11 06:18:48;;;;;;;18.20;5.65;;;13.90;99.90;;;;;;5072027;28;20048;-70
2022/06/11 06:21:17;;;;;;;7.88;4.88;;;14.00;99.90;;;;;;5061996;28;20044;-71
2022/06/11 06:23:44;;;;;;;17.92;5.00;;;14.10;99.90;;;;;;5060298;28;20048;-71
2022/06/11 06:26:11;;;;;;;7.60;4.72;;;14.20;99.90;;;;;;5054425;28;20033;-71
2022/06/11 06:28:38;;;;;;;15.15;5.18;;;14.30;99.90;;;;;;5053325;28;20053;-71
2022/06/11 06:31:07;;;;;;;6.32;4.03;;;14.40;99.90;;;;;;5061979;28;20036;-71
2022/06/11 06:33:34;;;;;;;17.23;4.55;;;14.50;99.90;;;;;;5071816;28;20052;-71
2022/06/11 06:36:05;;;;;;;13.55;4.45;;;14.60;99.90;;;;;;5054194;28;20090;-71
2022/06/11 06:38:33;;;;;;;6.68;4.40;;;14.70;99.90;;;;;;5068480;28;20505;-71
2022/06/11 06:41:00;;;;;;;6.78;4.30;;;14.90;99.90;;;;;;5051424;28;20075;-71
2022/06/11 06:43:27;;;;;;;9.68;4.43;;;15.10;99.90;;;;;;5069477;28;20050;-71
2022/06/11 06:45:54;;;;;;;6.55;4.57;;;15.20;99.90;;;;;;5071678;28;20081;-71
2022/06/11 06:48:20;;;;;;;6.60;4.30;;;15.30;99.90;;;;;;5064592;28;20543;-70
2022/06/11 06:50:47;;;;;;;7.95;5.20;;;15.40;99.90;;;;;;5062583;28;20558;-71
2022/06/11 06:53:14;;;;;;;5.97;4.10;;;15.50;99.90;;;;;;5059726;28;20048;-71
2022/06/11 06:55:41;;;;;;;7.38;3.47;;;15.70;99.90;;;;;;5060155;28;20037;-71
2022/06/11 06:58:08;;;;;;;7.18;4.00;;;15.90;99.90;;;;;;5064733;28;20082;-71
2022/06/11 07:00:34;;;;;;;6.22;4.00;;;16.10;99.90;;;;;;5070585;28;20032;-71
2022/06/11 07:03:01;;;;;;;5.22;3.63;;;16.30;99.90;;;;;;5070349;28;20052;-70
2022/06/11 07:05:28;;;;;;;7.18;4.20;;;16.40;99.90;;;;;;5063020;28;20040;-71
2022/06/11 07:07:55;;;;;;;8.57;3.80;;;16.60;99.90;;;;;;5051633;28;20406;-70
2022/06/11 07:10:24;;;;;;;7.00;3.60;;;16.60;99.90;;;;;;5051192;28;20071;-71
2022/06/11 07:12:51;;;;;;;7.35;3.75;;;16.80;99.90;;;;;;5053396;28;20294;-71
2022/06/11 07:15:18;;;;;;;6.10;3.95;;;16.90;99.90;;;;;;5081946;22;20053;-65
2022/06/11 07:22:09;;;;;;;6.00;3.42;;;17.10;99.90;;;;;;5009147;28;20092;-66
2022/06/11 07:24:38;;;;;;;6.88;3.55;;;17.00;99.90;;;;;;5015001;28;20041;-66
2022/06/11 07:27:10;;;;;;;6.28;3.55;;;17.20;99.90;;;;;;5021053;28;20049;-66
2022/06/11 07:29:43;;;;;;;4.75;3.42;;;17.30;99.90;;;;;;5011818;28;20057;-66
2022/06/11 07:32:16;;;;;;;9.02;4.28;;;17.50;99.90;;;;;;5008954;28;20116;-66
2022/06/11 07:34:43;;;;;;;7.20;3.58;;;17.60;99.90;;;;;;5018566;28;20054;-66
2022/06/11 07:37:10;;;;;;;6.28;3.63;;;17.70;99.90;;;;;;5022531;28;20053;-66
2022/06/11 07:39:37;;;;;;;4.20;3.38;;;17.70;99.90;;;;;;5019333;28;20502;-66
2022/06/11 07:42:05;;;;;;;3.65;3.17;;;17.90;99.90;;;;;;5018350;28;20111;-65
2022/06/11 07:44:32;;;;;;;4.50;3.42;;;18.00;99.90;;;;;;5017093;28;20042;-66
2022/06/11 07:46:58;;;;;;;4.68;3.58;;;18.20;99.90;;;;;;5014920;28;20046;-66
2022/06/11 07:49:25;;;;;;;7.70;3.65;;;18.40;99.90;;;;;;5028559;28;20111;-67
2022/06/11 07:51:52;;;;;;;4.88;3.63;;;18.50;99.90;;;;;;5028267;28;20057;-66
2022/06/11 07:54:19;;;;;;;5.13;3.30;;;18.50;99.90;;;;;;5027920;28;20087;-66
2022/06/11 07:56:46;;;;;;;5.75;3.55;;;18.50;99.90;;;;;;5020195;28;20497;-66
2022/06/11 07:59:13;;;;;;;6.88;3.35;;;18.60;99.90;;;;;;5067257;28;20052;-65
2022/06/11 08:01:40;;;;;;;4.30;3.25;;;18.60;99.90;;;;;;5072769;28;20048;-65
2022/06/11 08:04:06;;;;;;;5.78;3.30;;;18.50;99.90;;;;;;5085590;28;20102;-66
2022/06/11 08:06:33;;;;;;;8.55;3.45;;;18.70;99.90;;;;;;5084077;28;20040;-65
2022/06/11 08:09:01;;;;;;;6.32;3.60;;;18.70;99.90;;;;;;5085775;28;20101;-66
2022/06/11 08:11:28;;;;;;;5.43;3.20;;;18.80;99.90;;;;;;5082407;28;20561;-66
2022/06/11 08:13:54;;;;;;;6.40;3.35;;;18.90;99.90;;;;;;5082041;28;20048;-66
2022/06/11 08:16:21;;;;;;;4.20;3.20;;;19.00;99.90;;;;;;5082611;28;20040;-66
2022/06/11 08:18:48;;;;;;;5.82;3.25;;;19.20;99.90;;;;;;5066011;28;20508;-65
2022/06/11 08:21:15;;;;;;;8.30;3.13;;;19.40;99.90;;;;;;5085166;28;20044;-65
2022/06/11 08:23:42;;;;;;;5.45;3.35;;;19.40;99.90;;;;;;5084020;28;20561;-66
2022/06/11 08:26:09;;;;;;;10.48;2.83;;;19.50;99.90;;;;;;5084853;28;20082;-66
2022/06/11 08:28:36;;;;;;;3.92;2.65;;;19.60;99.90;;;;;;5079819;28;20105;-65
2022/06/11 08:31:04;;;;;;;6.50;3.03;;;19.70;99.90;;;;;;5073792;28;20041;-65
2022/06/11 08:33:33;;;;;;;4.25;3.00;;;19.90;99.90;;;;;;5074036;28;20060;-65
2022/06/11 08:36:00;;;;;;;4.82;2.78;;;19.90;99.90;;;;;;5061216;28;20531;-65
2022/06/11 08:38:26;;;;;;;5.22;3.17;;;19.90;99.90;;;;;;5078295;28;20052;-65
2022/06/11 08:40:54;;;;;;;6.00;4.10;;;20.00;99.90;;;;;;5073748;28;20044;-65
2022/06/11 08:43:26;;;;;;;3.20;2.65;;;20.10;99.90;;;;;;5082979;28;20052;-65
2022/06/11 08:45:57;;;;;;;4.20;3.20;;;20.20;99.90;;;;;;5085495;28;20564;-64
2022/06/11 08:48:33;;;;;;;5.50;2.90;;;20.40;99.90;;;;;;5093566;28;20131;-65
2022/06/11 08:51:24;;;;;;;5.30;2.90;;;20.50;99.90;;;;;;5083266;28;20044;-66
2022/06/11 08:53:55;;;;;;;4.60;2.95;;;20.50;99.90;;;;;;5076509;28;20125;-65
2022/06/11 08:56:42;;;;;;;6.55;3.88;;;20.80;99.90;;;;;;5083387;28;20122;-66
2022/06/11 08:59:18;;;;;;;4.22;2.90;;;20.80;99.90;;;;;;5087061;28;20040;-65
2022/06/11 09:02:22;;;;;;;3.08;2.60;;;20.90;99.90;;;;;;5093576;28;20073;-65
2022/06/11 09:04:57;;;;;;;5.97;3.30;;;21.00;99.90;;;;;;5093300;28;20129;-66
2022/06/11 09:07:30;;;;;;;5.30;2.95;;;21.00;99.90;;;;;;5089572;28;20047;-66
2022/06/11 09:10:40;;;;;;;5.15;2.78;;;21.00;99.90;;;;;;5089700;28;20040;-65
2022/06/11 09:13:18;;;;;;;;;;;20.70;99.90;;;;;;5078930;28;20072;-65
2022/06/11 09:15:54;;;;;;;3.83;2.80;;;20.90;99.90;;;;;;5082561;28;20398;-66
2022/06/11 09:18:37;;;;;;;6.15;3.00;;;21.00;99.90;;;;;;5085361;28;20043;-65
2022/06/11 09:21:21;;;;;;;3.83;2.88;;;21.20;99.90;;;;;;5093171;28;20105;-66
2022/06/11 09:24:15;;;;;;;5.20;2.97;;;21.30;99.90;;;;;;5093533;28;20512;-66
2022/06/11 09:26:48;;;;;;;4.68;3.08;;;21.50;99.90;;;;;;5082890;28;20550;-65
2022/06/11 09:29:28;;;;;;;5.97;3.20;;;21.50;99.90;;;;;;5087305;28;20032;-65
2022/06/11 09:32:04;;;;;;;3.63;2.90;;;21.60;99.90;;;;;;5081764;28;20051;-65
2022/06/11 09:34:45;;;;;;;6.05;2.97;;;21.70;99.90;;;;;;5081962;28;20043;-65
2022/06/11 09:37:16;;;;;;;4.25;2.88;;;21.80;99.90;;;;;;5081793;28;20045;-65
2022/06/11 09:40:06;;;;;;;4.97;2.63;;;22.00;99.90;;;;;;5080747;28;20048;-65
2022/06/11 09:43:18;;;;;;;5.80;2.55;;;22.00;99.90;;;;;;5075252;28;20044;-65
2022/06/11 09:46:10;;;;;;;4.25;2.55;;;21.70;99.90;;;;;;5018751;28;20495;-65
2022/06/11 09:48:47;;;;;;;5.95;2.58;;;21.70;99.90;;;;;;5072854;28;20060;-65
2022/06/11 09:51:47;;;;;;;3.20;2.60;;;21.90;99.90;;;;;;5072301;28;20082;-65
2022/06/11 09:54:50;;;;;;;6.47;2.85;;;21.90;99.90;;;;;;5080737;28;20094;-66
2022/06/11 09:57:38;;;;;;;2.50;2.30;;;22.00;99.90;;;;;;5090290;28;20040;-62
2022/06/11 10:00:33;;;;;;;3.05;2.25;;;22.20;99.90;;;;;;5091689;28;20040;-62
2022/06/11 10:03:28;;;;;;;3.08;2.15;;;22.40;99.90;;;;;;5084525;28;20582;-61
2022/06/11 10:06:12;;;;;;;5.80;2.80;;;22.80;99.90;;;;;;5092492;28;20059;-62
2022/06/11 10:09:09;;;;;;;3.53;2.42;;;22.70;99.90;;;;;;5089560;28;20404;-62
2022/06/11 10:11:44;;;;;;;3.97;2.05;;;22.90;99.90;;;;;;5079374;28;20102;-60
2022/06/11 10:14:28;;;;;;;3.20;2.53;;;22.70;99.90;;;;;;5071903;28;20052;-62
2022/06/11 10:17:04;;;;;;;3.20;2.30;;;22.80;99.90;;;;;;5072323;28;20063;-61
2022/06/11 10:19:56;;;;;;;3.83;2.53;;;22.80;99.90;;;;;;5085981;28;20047;-61
2022/06/11 10:22:38;;;;;;;6.25;2.08;;;22.90;99.90;;;;;;5087476;28;20157;-67
2022/06/11 10:25:37;;;;;;;2.75;2.17;;;23.00;99.90;;;;;;5091721;28;20059;-66
2022/06/11 10:28:14;;;;;;;2.90;2.28;;;23.10;99.90;;;;;;5091642;28;20052;-66
2022/06/11 10:30:50;;;;;;;3.88;2.20;;;23.30;99.90;;;;;;5083353;28;20191;-66
2022/06/11 10:33:29;;;;;;;3.85;2.10;;;23.50;99.90;;;;;;5092311;28;20500;-60
2022/06/11 10:36:15;;;;;;;5.50;2.35;;;23.50;99.90;;;;;;5091864;28;20044;-62
2022/06/11 10:39:03;;;;;;;5.55;2.35;;;23.40;99.90;;;;;;5090063;28;20052;-62
2022/06/11 10:41:41;;;;;;;3.78;2.33;;;23.30;99.90;;;;;;5087775;28;20466;-62
2022/06/11 10:44:22;;;;;;;3.15;2.22;;;23.60;99.90;;;;;;5092109;28;20647;-63
2022/06/11 10:46:52;;;;;;;5.35;2.42;;;23.80;99.90;;;;;;5091306;28;20105;-62
2022/06/11 10:49:22;;;;;;;7.70;2.40;;;23.80;99.90;;;;;;5083270;28;20044;-63
2022/06/11 10:51:59;;;;;;;3.40;2.40;;;23.80;99.90;;;;;;5071023;28;20074;-63
2022/06/11 10:54:26;;;;;;;3.80;3.00;;;23.90;99.90;;;;;;5072218;28;20044;-68
2022/06/11 10:57:05;;;;;;;2.42;1.83;;;24.10;99.90;;;;;;5083152;28;20048;-63
2022/06/11 10:59:48;;;;;;;2.70;2.00;;;24.10;99.90;;;;;;5092022;28;20043;-65
2022/06/11 11:02:36;;;;;;;2.75;1.92;;;24.00;99.90;;;;;;5091471;28;20093;-62
2022/06/11 11:05:08;;;;;;;2.60;2.33;;;24.20;99.90;;;;;;5086777;28;20060;-62
2022/06/11 11:07:57;;;;;;;2.28;2.08;;;24.40;99.90;;;;;;5070194;28;20415;-62
2022/06/11 11:10:40;;;;;;;4.05;2.25;;;24.50;99.90;;;;;;5091227;28;20044;-62
2022/06/11 11:13:23;;;;;;;2.92;2.25;;;24.50;99.90;;;;;;5091240;28;20040;-66
2022/06/11 11:16:11;;;;;;;3.38;2.10;;;24.60;99.90;;;;;;5082493;28;20043;-64
2022/06/11 11:18:53;;;;;;;2.10;1.80;;;24.60;99.80;;;;;;5091829;28;20407;-65
2022/06/11 11:21:31;;;;;;;2.67;2.45;;;24.70;99.10;;;;;;5085015;28;20040;-64
2022/06/11 11:24:02;;;;;;;;;;;24.60;99.50;;;;;;5074896;28;20434;-64
2022/06/11 11:26:39;;;;;;;2.35;2.00;;;24.70;99.90;;;;;;5074653;28;19924;-65
2022/06/11 11:29:13;;;;;;;6.25;1.98;;;25.00;99.90;;;;;;5071211;28;20049;-64
2022/06/11 11:31:51;;;;;;;5.25;2.00;;;25.00;99.90;;;;;;5079875;28;20064;-64
2022/06/11 11:34:21;;;;;;;2.47;1.83;;;25.00;99.90;;;;;;5091255;28;20623;-62
2022/06/11 11:36:48;;;;;;;5.78;2.50;;;25.10;99.80;;;;;;5092135;28;20048;-60
2022/06/11 11:39:27;;;;;;;6.30;2.25;;;24.90;99.90;;;;;;5094620;28;20040;-60
2022/06/11 11:42:02;;;;;;;2.25;2.03;;;24.60;99.70;;;;;;5086563;28;20101;-60
2022/06/11 11:44:38;;;;;;;4.20;2.40;;;24.60;99.90;;;;;;5095313;28;20040;-61
2022/06/11 11:47:14;;;;;;;3.85;2.20;;;24.70;99.90;;;;;;5095144;28;20043;-62
2022/06/11 11:49:46;;;;;;;2.45;1.88;;;24.50;99.90;;;;;;5084248;28;20044;-64
2022/06/11 11:52:18;;;;;;;2.70;2.25;;;24.80;99.90;;;;;;5074618;28;20044;-64
2022/06/11 11:55:26;;;;;;;3.22;2.35;;;24.90;99.90;;;;;;5074775;28;20079;-64
2022/06/11 11:58:06;;;;;;;3.88;2.20;;;25.00;99.90;;;;;;5034947;28;20121;-64
2022/06/11 12:01:07;;;;;;;8.68;4.10;;;24.70;99.90;;;;;;5085938;28;20067;-64
2022/06/11 12:03:45;;;;;;;4.20;2.20;;;24.40;99.90;;;;;;5076643;28;20503;-64
2022/06/11 12:06:16;;;;;;;4.63;1.98;;;24.30;99.90;;;;;;5090822;28;20051;-64
2022/06/11 12:08:53;;;;;;;3.42;2.10;;;24.10;99.90;;;;;;5086281;28;20064;-64
2022/06/11 12:11:23;;;;;;;3.22;2.25;;;24.30;99.90;;;;;;5094465;28;20098;-64
2022/06/11 12:13:59;;;;;;;4.95;2.13;;;24.40;99.90;;;;;;5094812;28;20465;-64
2022/06/11 12:16:32;;;;;;;4.68;2.60;;;24.40;99.90;;;;;;5082423;28;20413;-64
2022/06/11 12:19:16;;;;;;;2.65;2.10;;;24.60;99.90;;;;;;5074549;28;20045;-64
2022/06/11 12:21:46;;;;;;;3.10;1.98;;;25.00;99.90;;;;;;5074040;28;20059;-62
2022/06/11 12:24:26;;;;;;;2.42;1.98;;;25.30;99.90;;;;;;5081592;28;20108;-62
2022/06/11 12:27:00;;;;;;;3.33;2.05;;;25.20;99.90;;;;;;5074332;28;20049;-65
2022/06/11 12:29:41;;;;;;;2.83;2.05;;;25.20;99.90;;;;;;5074168;28;20166;-64
2022/06/11 12:32:20;;;;;;;4.32;2.15;;;25.40;99.90;;;;;;5087511;28;20036;-65
2022/06/11 12:34:48;;;;;;;5.97;2.50;;;25.40;99.90;;;;;;5092699;28;20431;-65
2022/06/11 12:37:26;;;;;;;2.92;2.10;;;25.30;99.80;;;;;;5084422;28;20044;-65
2022/06/11 12:39:59;;;;;;;3.47;2.53;;;25.50;99.40;;;;;;5081465;28;20040;-64
2022/06/11 12:42:50;;;;;;;5.13;2.10;;;25.40;99.00;;;;;;5089714;28;20048;-65
2022/06/11 12:45:34;;;;;;;4.07;2.20;;;25.40;99.80;;;;;;5094026;28;20040;-65
2022/06/11 12:52:17;;;;;;;4.95;1.90;;;25.20;98.70;;;;;;5014893;28;20100;-65
2022/06/11 12:55:06;;;;;;;4.07;2.10;;;25.10;98.80;;;;;;5092154;28;20056;-64
2022/06/11 12:57:50;;;;;;;4.82;1.95;;;25.00;98.50;;;;;;5093990;28;20052;-65
2022/06/11 13:00:51;;;;;;;3.10;1.90;;;25.00;99.90;;;;;;5083151;28;20094;-65
2022/06/11 13:03:42;;;;;;;4.68;2.28;;;25.30;99.30;;;;;;5087285;28;20036;-65
2022/06/11 13:06:40;;;;;;;4.30;2.10;;;25.30;97.80;;;;;;5076758;28;20389;-61
2022/06/11 13:09:25;;;;;;;3.95;2.10;;;25.30;99.30;;;;;;5082111;28;20459;-63
2022/06/11 13:12:21;;;;;;;2.30;1.58;;;25.20;98.10;;;;;;5072757;28;20060;-62
2022/06/11 13:19:34;;;;;;;3.75;1.98;;;25.00;97.10;;;;;;5095330;28;20641;-65
2022/06/11 13:22:41;;;;;;;3.63;1.85;;;24.90;97.70;;;;;;5104432;28;20040;-64
2022/06/11 13:25:19;;;;;;;2.05;1.60;;;25.00;98.40;;;;;;5109527;28;20126;-63
2022/06/11 13:28:17;;;;;;;5.63;2.00;;;25.10;97.20;;;;;;5109665;28;20043;-66
2022/06/11 13:31:01;;;;;;;2.65;1.70;;;25.10;97.10;;;;;;5116715;27;20396;-70
2022/06/11 13:33:35;;;;;;;2.28;1.77;;;25.10;95.90;;;;;;5103469;28;20098;-70
2022/06/11 13:36:09;;;;;;;3.58;1.92;;;25.10;96.00;;;;;;5105967;28;20398;-70
2022/06/11 13:38:56;;;;;;;2.25;1.70;;;25.20;96.30;;;;;;5102560;28;20519;-70
2022/06/11 13:41:51;;;;;;;2.30;1.88;;;25.20;96.50;;;;;;5101714;28;20046;-70